Laval-Ouest, Canada
Current Conditions -  °F | °C
As of 5:00 AM on Saturday 29 Nov 2014 (Local Time) from CYUL Reporting Station
Broken Clouds Broken Clouds  
Wind Chill: -8°   Ceiling: 3000
Heat Index: -8°   Visibility: 15mi
Dew Point: -11°   Wind: 0mph
Humidity: 79%   Direction: NA
Pressure: 30.23"   Gusts: NA
Location:  45.55°N, 73.87°W
Report Text: CYUL 291000Z 00000KT 15SM FEW015 BKN030 M08/M11 A3023 RMK SF1SC5 SF TR SLP240
Loading
Personal Weather Stations






























Interactive Weather Map New forecast layout! Learn more

10-Day Weather Forecast

Advertisements
Track Severe Weather on mobile